createdAt,value
2022-08-07T00:02:39.774Z,17
2022-08-07T00:04:34.650Z,15
2022-08-07T00:07:05.306Z,15
2022-08-07T00:09:35.819Z,13
2022-08-07T00:12:06.219Z,20
2022-08-07T00:14:36.401Z,16
2022-08-07T00:17:06.624Z,19
2022-08-07T00:20:00.173Z,15
2022-08-07T00:22:07.346Z,18
2022-08-07T00:24:37.745Z,17
2022-08-07T00:27:09.281Z,15
2022-08-07T00:29:38.559Z,20
2022-08-07T00:32:08.726Z,16
2022-08-07T00:34:39.091Z,15
2022-08-07T00:37:09.245Z,16
2022-08-07T00:39:45.039Z,14
2022-08-07T00:42:10.005Z,18
2022-08-07T00:44:41.499Z,14
2022-08-07T00:47:16.170Z,15
2022-08-07T00:50:20.038Z,16
2022-08-07T00:52:11.190Z,16
2022-08-07T00:54:41.650Z,17
2022-08-07T00:57:11.745Z,16
2022-08-07T00:59:42.086Z,14
2022-08-07T01:02:27.887Z,13
2022-08-07T01:04:43.098Z,17
2022-08-07T01:07:13.421Z,16
2022-08-07T01:10:05.259Z,15
2022-08-07T01:12:30.231Z,18
2022-08-07T01:14:44.971Z,20
2022-08-07T01:17:14.733Z,19
2022-08-07T01:19:54.128Z,16
2022-08-07T01:22:22.514Z,18
2022-08-07T01:24:45.426Z,18
2022-08-07T01:27:19.638Z,18
2022-08-07T01:29:46.285Z,17
2022-08-07T01:32:16.425Z,17
2022-08-07T01:34:47.365Z,15
2022-08-07T01:37:17.360Z,19
2022-08-07T01:39:47.459Z,16
2022-08-07T01:42:37.883Z,15
2022-08-07T01:44:48.329Z,16
2022-08-07T01:48:19.182Z,18
2022-08-07T01:49:49.149Z,17
2022-08-07T01:52:19.595Z,16
2022-08-07T01:54:50.267Z,14
2022-08-07T01:57:24.949Z,14
2022-08-07T01:59:51.186Z,15
2022-08-07T02:03:05.721Z,16
2022-08-07T02:04:55.856Z,16
2022-08-07T02:07:22.273Z,15
2022-08-07T02:09:54.741Z,21
2022-08-07T02:12:30.850Z,18
2022-08-07T02:14:52.709Z,16
2022-08-07T02:17:25.000Z,14
2022-08-07T02:20:06.689Z,18
2022-08-07T02:22:25.790Z,19
2022-08-07T02:24:54.465Z,15
2022-08-07T02:27:24.873Z,21
2022-08-07T02:29:55.310Z,16
2022-08-07T02:32:30.009Z,16
2022-08-07T02:34:56.783Z,21
2022-08-07T02:37:27.772Z,22
2022-08-07T02:40:11.809Z,20
2022-08-07T02:42:28.206Z,19
2022-08-07T02:44:58.981Z,19
2022-08-07T02:47:35.041Z,20
2022-08-07T02:50:00.486Z,20
2022-08-07T02:52:31.032Z,19
2022-08-07T02:55:01.088Z,19
2022-08-07T02:57:34.892Z,22
2022-08-07T03:00:04.931Z,19
2022-08-07T03:02:31.520Z,16
2022-08-07T03:05:04.887Z,20
2022-08-07T03:08:05.325Z,22
2022-08-07T03:10:02.635Z,25
2022-08-07T03:12:32.699Z,24
2022-08-07T03:15:07.968Z,20
2022-08-07T03:17:52.839Z,17
2022-08-07T03:20:04.443Z,22
2022-08-07T03:22:34.901Z,39
2022-08-07T03:25:05.458Z,42
2022-08-07T03:27:42.179Z,40
2022-08-07T03:30:06.046Z,29
2022-08-07T03:32:36.240Z,42
2022-08-07T03:35:17.484Z,24
2022-08-07T03:37:46.108Z,37
2022-08-07T03:40:15.484Z,36
2022-08-07T03:42:39.179Z,53
2022-08-07T03:45:09.424Z,24
2022-08-07T03:47:45.093Z,57
2022-08-07T03:50:10.584Z,26
2022-08-07T03:52:40.896Z,24
2022-08-07T03:55:11.036Z,22
2022-08-07T03:59:05.419Z,41
2022-08-07T04:00:11.834Z,24
2022-08-07T04:02:42.695Z,23
2022-08-07T04:05:13.463Z,37
2022-08-07T04:07:45.422Z,26
2022-08-07T04:10:15.412Z,28
2022-08-07T04:12:44.800Z,43
2022-08-07T04:15:15.563Z,24
2022-08-07T04:18:59.067Z,22
2022-08-07T04:20:15.975Z,25
2022-08-07T04:22:53.346Z,29
2022-08-07T04:25:17.093Z,65
2022-08-07T04:28:00.489Z,23
2022-08-07T04:30:35.345Z,25
2022-08-07T04:32:48.033Z,37
2022-08-07T04:35:18.484Z,26
2022-08-07T04:38:03.384Z,40
2022-08-07T04:40:19.869Z,37
2022-08-07T04:42:51.791Z,14
2022-08-07T04:46:00.372Z,18
2022-08-07T04:48:02.265Z,32
2022-08-07T04:50:22.293Z,20
2022-08-07T04:52:52.791Z,17
2022-08-07T04:58:07.347Z,34
2022-08-07T04:58:32.100Z,33
2022-08-07T05:00:30.155Z,22
2022-08-07T05:02:54.154Z,21
2022-08-07T05:05:53.057Z,32
2022-08-07T05:07:55.790Z,31
2022-08-07T05:10:26.005Z,27
2022-08-07T05:13:01.457Z,30
2022-08-07T05:15:26.675Z,28
2022-08-07T05:17:57.710Z,25
2022-08-07T05:20:27.497Z,31
2022-08-07T05:22:58.266Z,28
2022-08-07T05:26:10.434Z,36
2022-08-07T05:28:16.928Z,32
2022-08-07T05:30:32.373Z,25
2022-08-07T05:33:02.570Z,27
2022-08-07T05:35:33.160Z,31
2022-08-07T05:38:08.943Z,27
2022-08-07T05:40:31.611Z,32
2022-08-07T05:43:02.327Z,31
2022-08-07T05:45:46.967Z,26
2022-08-07T05:48:03.584Z,25
2022-08-07T05:50:33.798Z,26
2022-08-07T05:53:04.711Z,29
2022-08-07T05:56:02.268Z,31
2022-08-07T05:58:05.218Z,32
2022-08-07T06:00:35.692Z,29
2022-08-07T06:03:06.229Z,25
2022-08-07T06:05:36.625Z,30
2022-08-07T06:08:29.732Z,24
2022-08-07T06:10:37.897Z,29
2022-08-07T06:13:13.624Z,29
2022-08-07T06:15:39.200Z,30
2022-08-07T06:18:09.127Z,27
2022-08-07T06:20:50.980Z,30
2022-08-07T06:23:46.174Z,25
2022-08-07T06:25:40.363Z,26
2022-08-07T06:28:10.733Z,28
2022-08-07T06:30:45.384Z,28
2022-08-07T06:33:16.001Z,25
2022-08-07T06:35:47.787Z,28
2022-08-07T06:38:20.115Z,25
2022-08-07T06:40:45.826Z,26
2022-08-07T06:43:21.327Z,29
2022-08-07T06:45:44.426Z,26
2022-08-07T06:48:13.975Z,26
2022-08-07T06:50:47.720Z,30
2022-08-07T06:53:18.803Z,25
2022-08-07T06:56:00.949Z,24
2022-08-07T06:58:14.629Z,23
2022-08-07T07:00:45.107Z,22
2022-08-07T07:03:17.259Z,22
2022-08-07T07:06:04.150Z,25
2022-08-07T07:08:18.669Z,22
2022-08-07T07:10:47.300Z,26
2022-08-07T07:13:16.264Z,22
2022-08-07T07:15:51.683Z,26
2022-08-07T07:18:33.078Z,20
2022-08-07T07:20:48.264Z,24
2022-08-07T07:24:09.033Z,22
2022-08-07T07:26:34.981Z,26
2022-08-07T07:28:42.611Z,25
2022-08-07T07:30:50.258Z,17
2022-08-07T07:33:20.463Z,21
2022-08-07T07:36:04.018Z,23
2022-08-07T07:38:21.405Z,21
2022-08-07T07:40:52.062Z,16
2022-08-07T07:43:27.753Z,16
2022-08-07T07:46:40.189Z,17
2022-08-07T07:48:35.162Z,20
2022-08-07T07:50:53.122Z,16
2022-08-07T07:53:25.788Z,22
2022-08-07T07:55:57.656Z,16
2022-08-07T07:58:23.859Z,18
2022-08-07T08:00:54.263Z,15
2022-08-07T08:04:06.383Z,14
2022-08-07T08:05:55.709Z,14
2022-08-07T08:08:35.585Z,15
2022-08-07T08:10:55.109Z,17
2022-08-07T08:13:25.107Z,17
2022-08-07T08:15:58.793Z,14
2022-08-07T08:18:26.364Z,14
2022-08-07T08:20:56.728Z,14
2022-08-07T08:23:28.067Z,14
2022-08-07T08:25:57.623Z,12
2022-08-07T08:28:37.650Z,10
2022-08-07T08:30:58.300Z,11
2022-08-07T08:33:28.877Z,13
2022-08-07T08:35:58.981Z,14
2022-08-07T08:38:30.103Z,11
2022-08-07T08:40:59.027Z,10
2022-08-07T08:43:41.856Z,12
2022-08-07T08:46:01.000Z,7
2022-08-07T08:48:32.359Z,8
2022-08-07T08:51:00.214Z,10
2022-08-07T08:53:30.478Z,9
2022-08-07T08:56:00.866Z,10
2022-08-07T08:58:31.032Z,10
2022-08-07T09:01:01.388Z,10
2022-08-07T09:03:47.995Z,9
2022-08-07T09:06:01.897Z,7
2022-08-07T09:08:32.145Z,5
2022-08-07T09:11:02.495Z,7
2022-08-07T09:13:36.874Z,5
2022-08-07T09:16:23.615Z,7
2022-08-07T09:18:33.316Z,19
2022-08-07T09:21:03.440Z,20
2022-08-07T09:24:32.047Z,17
2022-08-07T09:26:04.033Z,38
2022-08-07T09:30:05.474Z,15
2022-08-07T09:31:04.455Z,21
2022-08-07T09:33:52.407Z,16
2022-08-07T09:36:07.607Z,12
2022-08-07T09:38:35.150Z,11
2022-08-07T09:41:05.326Z,10
2022-08-07T09:44:03.221Z,11
2022-08-07T09:47:50.661Z,12
2022-08-07T09:48:56.097Z,9
2022-08-07T09:51:14.506Z,5
2022-08-07T09:53:41.422Z,5
2022-08-07T09:56:06.837Z,7
2022-08-07T09:58:37.138Z,7
2022-08-07T10:01:08.276Z,6
2022-08-07T10:04:06.003Z,7
2022-08-07T10:06:12.089Z,6
2022-08-07T10:08:38.144Z,6
2022-08-07T10:12:00.248Z,6
2022-08-07T10:14:00.862Z,7
2022-08-07T10:16:08.740Z,5
2022-08-07T10:18:38.939Z,4
2022-08-07T10:21:19.933Z,6
2022-08-07T10:24:05.310Z,6
2022-08-07T10:26:09.620Z,8
2022-08-07T10:28:39.901Z,6
2022-08-07T10:31:11.223Z,6
2022-08-07T10:34:14.116Z,6
2022-08-07T10:36:11.251Z,5
2022-08-07T10:38:48.189Z,4
2022-08-07T10:41:11.138Z,5
2022-08-07T10:43:41.151Z,6
2022-08-07T10:46:11.382Z,5
2022-08-07T10:48:41.570Z,3
2022-08-07T10:51:16.763Z,5
2022-08-07T10:53:44.862Z,5
2022-08-07T10:56:21.009Z,5
2022-08-07T10:58:43.086Z,6
2022-08-07T11:01:13.203Z,5
2022-08-07T11:03:54.932Z,3
2022-08-07T11:06:18.303Z,4
2022-08-07T11:08:43.756Z,3
2022-08-07T11:11:13.992Z,5
2022-08-07T11:14:45.420Z,5
2022-08-07T11:16:14.406Z,5
2022-08-07T11:18:44.665Z,5
2022-08-07T11:21:14.785Z,3
2022-08-07T11:23:45.479Z,5
2022-08-07T11:26:15.333Z,5
2022-08-07T11:28:53.455Z,5
2022-08-07T11:31:15.641Z,3
2022-08-07T11:33:58.520Z,5
2022-08-07T11:36:16.036Z,3
2022-08-07T11:38:50.349Z,7
2022-08-07T11:41:18.490Z,4
2022-08-07T11:44:11.966Z,3
2022-08-07T11:46:16.880Z,3
2022-08-07T11:49:21.958Z,5
2022-08-07T11:51:40.832Z,5
2022-08-07T11:54:00.815Z,5
2022-08-07T11:56:26.334Z,5
2022-08-07T11:58:49.915Z,5
2022-08-07T12:01:20.391Z,6
2022-08-07T12:03:48.322Z,6
2022-08-07T12:06:39.307Z,5
2022-08-07T12:08:48.568Z,6
2022-08-07T12:11:20.733Z,3
2022-08-07T12:13:49.046Z,5
2022-08-07T12:16:30.234Z,6
2022-08-07T12:18:50.722Z,7
2022-08-07T12:21:21.206Z,6
2022-08-07T12:24:07.345Z,5
2022-08-07T12:26:29.047Z,5
2022-08-07T12:28:53.031Z,5
2022-08-07T12:31:22.339Z,6
2022-08-07T12:34:01.424Z,5
2022-08-07T12:36:20.723Z,6
2022-08-07T12:38:57.445Z,5
2022-08-07T12:41:21.790Z,4
2022-08-07T12:44:04.086Z,3
2022-08-07T12:46:26.559Z,4
2022-08-07T12:48:52.889Z,6
2022-08-07T12:51:21.846Z,6
2022-08-07T12:54:02.832Z,10
2022-08-07T12:56:22.296Z,30
2022-08-07T12:58:53.157Z,4
2022-08-07T13:01:22.768Z,6
2022-08-07T13:04:02.553Z,5
2022-08-07T13:06:27.262Z,18
2022-08-07T13:08:53.615Z,24
2022-08-07T13:11:24.148Z,8
2022-08-07T13:13:54.608Z,8
2022-08-07T13:16:25.173Z,62
2022-08-07T13:18:55.276Z,23
2022-08-07T13:21:51.057Z,24
2022-08-07T13:24:01.624Z,16
2022-08-07T13:26:26.872Z,16
2022-08-07T13:28:58.447Z,72
2022-08-07T13:31:32.164Z,46
2022-08-07T13:34:32.828Z,16
2022-08-07T13:36:28.742Z,5
2022-08-07T13:38:58.835Z,5
2022-08-07T13:41:29.328Z,13
2022-08-07T13:43:59.400Z,36
2022-08-07T13:46:32.849Z,10
2022-08-07T13:48:59.779Z,5
2022-08-07T13:52:04.932Z,12
2022-08-07T13:54:03.066Z,14
2022-08-07T13:56:35.864Z,17
2022-08-07T13:59:00.518Z,6
2022-08-07T14:01:33.378Z,6
2022-08-07T14:04:06.946Z,5
2022-08-07T14:06:31.399Z,6
2022-08-07T14:09:04.771Z,6
2022-08-07T14:11:53.920Z,7
2022-08-07T14:14:01.957Z,10
2022-08-07T14:16:32.068Z,6
2022-08-07T14:19:02.790Z,5
2022-08-07T14:22:03.508Z,5
2022-08-07T14:24:03.820Z,7
2022-08-07T14:26:32.852Z,6
2022-08-07T14:29:10.481Z,5
2022-08-07T14:31:42.387Z,7
2022-08-07T14:34:03.210Z,5
2022-08-07T14:36:33.378Z,5
2022-08-07T14:39:03.754Z,6
2022-08-07T14:42:20.568Z,4
2022-08-07T14:44:09.956Z,6
2022-08-07T14:46:34.032Z,6
2022-08-07T14:49:55.643Z,8
2022-08-07T14:52:05.048Z,7
2022-08-07T14:54:30.952Z,6
2022-08-07T14:56:34.716Z,7
2022-08-07T14:59:13.794Z,7
2022-08-07T15:01:42.724Z,9
2022-08-07T15:04:05.893Z,9
2022-08-07T15:06:35.510Z,5
2022-08-07T15:09:57.642Z,7
2022-08-07T15:11:53.434Z,6
2022-08-07T15:14:10.104Z,8
2022-08-07T15:16:36.220Z,5
2022-08-07T15:21:44.075Z,5
2022-08-07T15:25:13.218Z,4
2022-08-07T15:26:36.831Z,5
2022-08-07T15:32:00.638Z,13
2022-08-07T15:34:12.435Z,14
2022-08-07T15:37:04.378Z,16
2022-08-07T15:39:10.363Z,12
2022-08-07T15:42:44.580Z,16
2022-08-07T15:44:08.368Z,10
2022-08-07T15:46:48.557Z,6
2022-08-07T15:49:13.090Z,6
2022-08-07T15:54:12.020Z,3
2022-08-07T15:56:40.562Z,7
2022-08-07T15:59:16.396Z,6
2022-08-07T16:01:39.893Z,5
2022-08-07T16:04:14.614Z,5
2022-08-07T16:06:39.973Z,4
2022-08-07T16:09:10.136Z,5
2022-08-07T16:11:41.670Z,6
2022-08-07T16:14:10.515Z,11
2022-08-07T16:16:48.223Z,5
2022-08-07T16:19:10.827Z,6
2022-08-07T16:21:43.913Z,7
2022-08-07T16:24:34.769Z,7
2022-08-07T16:26:58.938Z,7
2022-08-07T16:30:05.663Z,8
2022-08-07T16:31:51.723Z,19
2022-08-07T16:34:12.561Z,12
2022-08-07T16:37:01.934Z,6
2022-08-07T16:39:16.686Z,6
2022-08-07T16:41:48.793Z,5
2022-08-07T16:44:40.489Z,9
2022-08-07T16:47:09.576Z,5
2022-08-07T16:50:27.096Z,6
2022-08-07T16:51:54.138Z,8
2022-08-07T16:54:19.153Z,8
2022-08-07T16:56:44.110Z,10
2022-08-07T16:59:14.997Z,11
2022-08-07T17:01:44.532Z,12
2022-08-07T17:04:14.687Z,9
2022-08-07T17:06:47.278Z,6
2022-08-07T17:10:04.985Z,5
2022-08-07T17:12:04.325Z,5
2022-08-07T17:14:19.529Z,5
2022-08-07T17:16:45.610Z,3
2022-08-07T17:19:16.626Z,4
2022-08-07T17:21:51.422Z,6
2022-08-07T17:24:16.085Z,4
2022-08-07T17:26:49.830Z,4
2022-08-07T17:30:12.608Z,5
2022-08-07T17:32:02.614Z,4
2022-08-07T17:34:35.429Z,4
2022-08-07T17:36:58.345Z,5
2022-08-07T17:39:17.191Z,5
2022-08-07T17:42:04.785Z,4
2022-08-07T17:44:34.119Z,5
2022-08-07T17:46:52.416Z,6
2022-08-07T17:49:23.893Z,6
2022-08-07T17:52:00.767Z,4
2022-08-07T17:54:29.708Z,5
2022-08-07T17:56:49.887Z,3
2022-08-07T17:59:19.964Z,5
2022-08-07T18:01:48.897Z,4
2022-08-07T18:04:18.940Z,4
2022-08-07T18:07:19.488Z,3
2022-08-07T18:09:19.296Z,4
2022-08-07T18:12:16.662Z,7
2022-08-07T18:14:19.684Z,4
2022-08-07T18:16:58.216Z,4
2022-08-07T18:21:02.429Z,4
2022-08-07T18:21:55.261Z,7
2022-08-07T18:24:28.379Z,3
2022-08-07T18:26:50.681Z,3
2022-08-07T18:30:06.533Z,2
2022-08-07T18:31:51.217Z,2
2022-08-07T18:34:37.210Z,4
2022-08-07T18:36:53.856Z,4
2022-08-07T18:40:05.280Z,4
2022-08-07T18:41:53.154Z,4
2022-08-07T18:44:22.171Z,4
2022-08-07T18:46:54.915Z,7
2022-08-07T18:50:31.532Z,6
2022-08-07T18:52:33.982Z,5
2022-08-07T18:54:27.911Z,4
2022-08-07T18:56:58.178Z,5
2022-08-07T18:59:47.916Z,4
2022-08-07T19:02:31.851Z,6
2022-08-07T19:04:33.682Z,5
2022-08-07T19:06:54.343Z,4
2022-08-07T19:09:55.876Z,4
2022-08-07T19:12:04.783Z,6
2022-08-07T19:14:26.254Z,6
2022-08-07T19:17:04.912Z,5
2022-08-07T19:19:26.730Z,6
2022-08-07T19:22:04.815Z,8
2022-08-07T19:24:30.441Z,7
2022-08-07T19:28:58.535Z,5
2022-08-07T19:31:00.842Z,6
2022-08-07T19:32:17.044Z,4
2022-08-07T19:34:32.767Z,6
2022-08-07T19:36:58.395Z,6
2022-08-07T19:39:55.991Z,5
2022-08-07T19:42:08.386Z,6
2022-08-07T19:44:31.209Z,6
2022-08-07T19:46:59.481Z,4
2022-08-07T19:49:56.404Z,7
2022-08-07T19:52:00.323Z,6
2022-08-07T19:54:44.558Z,6
2022-08-07T19:57:59.839Z,7
2022-08-07T19:59:40.834Z,7
2022-08-07T20:02:01.089Z,6
2022-08-07T20:04:37.278Z,6
2022-08-07T20:07:01.666Z,4
2022-08-07T20:10:35.848Z,5
2022-08-07T20:12:34.474Z,5
2022-08-07T20:14:32.546Z,7
2022-08-07T20:17:02.783Z,7
2022-08-07T20:19:47.725Z,6
2022-08-07T20:22:03.323Z,6
2022-08-07T20:24:33.591Z,4
2022-08-07T20:27:03.895Z,7
2022-08-07T20:29:49.210Z,6
2022-08-07T20:32:04.533Z,6
2022-08-07T20:34:50.070Z,8
2022-08-07T20:37:05.158Z,7
2022-08-07T20:40:02.920Z,7
2022-08-07T20:42:05.578Z,9
2022-08-07T20:44:35.840Z,10
2022-08-07T20:47:09.448Z,8
2022-08-07T20:49:58.977Z,7
2022-08-07T20:52:10.742Z,8
2022-08-07T20:54:37.015Z,7
2022-08-07T20:57:10.265Z,8
2022-08-07T21:00:06.735Z,9
2022-08-07T21:02:08.349Z,5
2022-08-07T21:04:38.159Z,9
2022-08-07T21:07:14.786Z,7
2022-08-07T21:09:52.453Z,8
2022-08-07T21:12:15.146Z,10
2022-08-07T21:14:39.355Z,10
2022-08-07T21:18:02.747Z,8
2022-08-07T21:19:51.085Z,9
2022-08-07T21:22:10.285Z,8
2022-08-07T21:24:40.589Z,6
2022-08-07T21:27:10.919Z,8
2022-08-07T21:29:41.220Z,8
2022-08-07T21:32:47.339Z,7
2022-08-07T21:34:46.018Z,8
2022-08-07T21:37:12.322Z,7
2022-08-07T21:39:48.200Z,10
2022-08-07T21:42:37.761Z,7
2022-08-07T21:44:43.140Z,9
2022-08-07T21:47:17.345Z,8
2022-08-07T21:50:02.745Z,9
2022-08-07T21:52:14.151Z,9
2022-08-07T21:54:46.243Z,9
2022-08-07T21:57:16.108Z,10
2022-08-07T22:00:04.163Z,9
2022-08-07T22:02:15.564Z,8
2022-08-07T22:04:51.222Z,9
2022-08-07T22:07:16.139Z,9
2022-08-07T22:09:53.895Z,10
2022-08-07T22:12:17.544Z,10
2022-08-07T22:14:59.992Z,9
2022-08-07T22:17:17.459Z,9
2022-08-07T22:19:47.768Z,9
2022-08-07T22:22:28.902Z,10
2022-08-07T22:24:48.386Z,9
2022-08-07T22:27:18.761Z,11
2022-08-07T22:29:49.624Z,11
2022-08-07T22:32:20.463Z,8
2022-08-07T22:34:53.507Z,9
2022-08-07T22:37:20.173Z,11
2022-08-07T22:39:52.797Z,10
2022-08-07T22:42:25.831Z,9
2022-08-07T22:44:58.473Z,11
2022-08-07T22:47:23.400Z,8
2022-08-07T22:49:54.871Z,11
2022-08-07T22:52:37.632Z,11
2022-08-07T22:54:52.681Z,12
2022-08-07T22:57:25.709Z,12
2022-08-07T22:59:53.414Z,10
2022-08-07T23:02:23.912Z,10
2022-08-07T23:04:58.309Z,9
2022-08-07T23:07:39.704Z,11
2022-08-07T23:10:05.361Z,11
2022-08-07T23:12:32.663Z,11
2022-08-07T23:14:55.592Z,11
2022-08-07T23:17:26.073Z,10
2022-08-07T23:19:57.907Z,11
2022-08-07T23:22:26.689Z,8
2022-08-07T23:24:57.019Z,11
2022-08-07T23:27:33.659Z,9
2022-08-07T23:30:38.234Z,9
2022-08-07T23:34:19.549Z,8
2022-08-07T23:35:01.055Z,10
2022-08-07T23:37:29.342Z,9
2022-08-07T23:39:59.220Z,11
2022-08-07T23:42:33.466Z,7
2022-08-07T23:44:59.953Z,8
2022-08-07T23:47:30.243Z,11
2022-08-07T23:50:00.274Z,8
2022-08-07T23:53:00.971Z,9
2022-08-07T23:55:00.972Z,10
2022-08-07T23:57:32.404Z,9
